createdAt,value
2023-05-13T00:01:58.066Z,60.22
2023-05-13T00:04:44.575Z,59.92
2023-05-13T00:07:37.500Z,60.37
2023-05-13T00:10:32.120Z,64.14
2023-05-13T00:12:59.020Z,66.52
2023-05-13T00:15:26.317Z,66.58
2023-05-13T00:17:53.256Z,68.59
2023-05-13T00:20:20.573Z,69.96
2023-05-13T00:22:47.644Z,69.62
2023-05-13T00:25:14.674Z,70.85
2023-05-13T00:27:41.625Z,71.86
2023-05-13T00:30:09.595Z,70.42
2023-05-13T00:32:36.605Z,70.86
2023-05-13T00:35:04.168Z,72.33
2023-05-13T00:37:31.098Z,71.80
2023-05-13T00:39:58.027Z,73.78
2023-05-13T00:42:24.942Z,74.15
2023-05-13T00:44:52.353Z,73.70
2023-05-13T00:47:19.379Z,75.13
2023-05-13T00:49:46.412Z,74.13
2023-05-13T00:52:13.542Z,73.30
2023-05-13T00:54:40.606Z,75.54
2023-05-13T00:57:07.632Z,76.60
2023-05-13T00:59:34.570Z,76.65
2023-05-13T01:02:27.989Z,75.05
2023-05-13T01:04:59.539Z,73.39
2023-05-13T01:08:06.415Z,73.95
2023-05-13T01:11:04.493Z,74.45
2023-05-13T01:13:58.707Z,74.64
2023-05-13T01:17:12.463Z,73.43
2023-05-13T01:19:44.336Z,73.08
2023-05-13T01:22:11.407Z,72.73
2023-05-13T01:24:38.672Z,73.09
2023-05-13T01:27:06.532Z,75.81
2023-05-13T01:29:33.837Z,76.18
2023-05-13T01:32:02.056Z,76.07
2023-05-13T01:34:30.119Z,76.70
2023-05-13T01:36:58.177Z,75.00
2023-05-13T01:39:25.877Z,74.97
2023-05-13T01:41:52.858Z,76.97
2023-05-13T01:44:19.892Z,75.26
2023-05-13T01:46:48.052Z,74.18
2023-05-13T01:49:15.063Z,73.95
2023-05-13T01:51:41.937Z,75.13
2023-05-13T01:54:09.194Z,74.85
2023-05-13T01:56:36.296Z,73.67
2023-05-13T01:59:03.263Z,74.13
2023-05-13T02:01:30.270Z,73.88
2023-05-13T02:04:00.316Z,76.27
2023-05-13T02:06:28.294Z,73.95
2023-05-13T02:08:55.240Z,74.05
2023-05-13T02:11:22.709Z,74.93
2023-05-13T02:13:49.682Z,75.55
2023-05-13T02:16:18.289Z,75.04
2023-05-13T02:18:45.301Z,76.27
2023-05-13T02:21:12.253Z,76.32
2023-05-13T02:23:39.195Z,76.69
2023-05-13T02:26:06.164Z,76.94
2023-05-13T02:28:33.131Z,76.23
2023-05-13T02:31:00.191Z,76.47
2023-05-13T02:33:27.448Z,76.81
2023-05-13T02:35:54.470Z,76.46
2023-05-13T02:38:21.472Z,76.31
2023-05-13T02:40:48.511Z,77.18
2023-05-13T02:43:15.411Z,76.34
2023-05-13T02:45:42.412Z,77.42
2023-05-13T02:48:11.159Z,78.66
2023-05-13T02:50:38.245Z,78.52
2023-05-13T02:53:05.208Z,78.75
2023-05-13T02:55:32.191Z,78.61
2023-05-13T02:57:59.201Z,79.07
2023-05-13T03:00:26.233Z,80.79
2023-05-13T03:02:53.295Z,79.98
2023-05-13T03:05:20.291Z,80.24
2023-05-13T03:07:47.293Z,78.88
2023-05-13T03:10:14.440Z,80.34
2023-05-13T03:12:41.574Z,80.17
2023-05-13T03:15:09.163Z,78.82
2023-05-13T03:17:36.062Z,79.01
2023-05-13T03:20:03.324Z,80.03
2023-05-13T03:22:30.249Z,80.79
2023-05-13T03:24:58.543Z,80.56
2023-05-13T03:27:25.674Z,81.44
2023-05-13T03:29:52.571Z,80.51
2023-05-13T03:32:19.599Z,80.27
2023-05-13T03:34:46.578Z,81.81
2023-05-13T03:37:13.488Z,81.31
2023-05-13T03:39:40.376Z,79.93
2023-05-13T03:42:07.564Z,81.80
2023-05-13T03:44:35.521Z,81.80
2023-05-13T03:47:02.524Z,81.64
2023-05-13T03:49:29.434Z,82.81
2023-05-13T03:51:56.362Z,82.61
2023-05-13T03:54:24.538Z,81.03
2023-05-13T03:56:51.481Z,79.36
2023-05-13T03:59:18.441Z,77.89
2023-05-13T04:01:45.373Z,77.65
2023-05-13T04:04:12.303Z,77.91
2023-05-13T04:06:39.262Z,81.04
2023-05-13T04:09:06.315Z,81.71
2023-05-13T04:11:33.389Z,81.78
2023-05-13T04:14:00.318Z,80.99
2023-05-13T04:16:28.047Z,81.17
2023-05-13T04:18:55.197Z,80.75
2023-05-13T04:21:22.227Z,78.36
2023-05-13T04:23:49.183Z,79.73
2023-05-13T04:26:16.067Z,78.44
2023-05-13T04:28:43.018Z,78.81
2023-05-13T04:31:10.659Z,78.86
2023-05-13T04:33:37.582Z,78.64
2023-05-13T04:36:04.774Z,77.72
2023-05-13T04:38:32.221Z,77.61
2023-05-13T04:40:59.124Z,77.75
2023-05-13T04:43:26.214Z,78.85
2023-05-13T04:45:53.239Z,76.80
2023-05-13T04:48:20.209Z,77.43
2023-05-13T04:50:47.933Z,77.44
2023-05-13T04:53:16.153Z,78.99
2023-05-13T04:55:44.285Z,79.68
2023-05-13T04:58:11.239Z,77.59
2023-05-13T05:00:38.132Z,76.90
2023-05-13T05:03:05.173Z,75.01
2023-05-13T05:05:32.172Z,75.49
2023-05-13T05:07:59.108Z,74.34
2023-05-13T05:10:26.197Z,71.41
2023-05-13T05:12:53.142Z,71.45
2023-05-13T05:15:20.537Z,70.40
2023-05-13T05:17:47.512Z,71.37
2023-05-13T05:20:14.661Z,71.01
2023-05-13T05:22:42.433Z,70.10
2023-05-13T05:25:10.325Z,70.81
2023-05-13T05:27:37.267Z,71.97
2023-05-13T05:30:04.817Z,71.65
2023-05-13T05:32:32.035Z,70.93
2023-05-13T05:35:02.331Z,69.33
2023-05-13T05:37:30.617Z,68.54
2023-05-13T05:39:58.116Z,68.45
2023-05-13T05:42:25.104Z,66.61
2023-05-13T05:44:52.082Z,66.53
2023-05-13T05:47:19.016Z,67.64
2023-05-13T05:49:46.601Z,67.17
2023-05-13T05:52:13.628Z,68.23
2023-05-13T05:54:40.601Z,67.11
2023-05-13T05:57:07.522Z,63.44
2023-05-13T05:59:34.449Z,62.12
2023-05-13T06:02:01.716Z,62.36
2023-05-13T06:04:28.748Z,62.04
2023-05-13T06:06:55.728Z,61.90
2023-05-13T06:09:22.797Z,56.88
2023-05-13T06:11:49.767Z,55.53
2023-05-13T06:14:17.925Z,57.11
2023-05-13T06:16:44.845Z,56.64
2023-05-13T06:19:11.889Z,55.61
2023-05-13T06:21:38.844Z,58.31
2023-05-13T06:24:05.949Z,54.25
2023-05-13T06:26:32.879Z,53.23
2023-05-13T06:28:59.826Z,51.18
2023-05-13T06:31:27.063Z,49.67
2023-05-13T06:33:53.994Z,49.21
2023-05-13T06:36:20.896Z,48.96
2023-05-13T06:38:47.810Z,47.72
2023-05-13T06:41:15.585Z,46.24
2023-05-13T06:43:45.806Z,46.69
2023-05-13T06:46:13.127Z,45.77
2023-05-13T06:48:40.135Z,46.57
2023-05-13T06:51:07.413Z,43.00
2023-05-13T06:53:34.288Z,43.53
2023-05-13T06:56:01.203Z,44.02
2023-05-13T06:58:28.186Z,41.58
2023-05-13T07:00:55.178Z,41.80
2023-05-13T07:03:22.139Z,43.39
2023-05-13T07:05:49.185Z,42.21
2023-05-13T07:08:18.195Z,42.79
2023-05-13T07:10:45.386Z,41.79
2023-05-13T07:13:12.823Z,40.78
2023-05-13T07:15:39.748Z,41.54
2023-05-13T07:18:06.865Z,40.94
2023-05-13T07:20:33.864Z,41.94
2023-05-13T07:23:00.770Z,42.01
2023-05-13T07:25:27.789Z,40.47
2023-05-13T07:27:54.782Z,41.21
2023-05-13T07:30:21.974Z,43.19
2023-05-13T07:32:49.155Z,42.71
2023-05-13T07:35:17.426Z,44.51
2023-05-13T07:37:44.987Z,43.08
2023-05-13T07:40:13.474Z,44.34
2023-05-13T07:42:41.084Z,44.89
2023-05-13T07:45:09.113Z,43.91
2023-05-13T07:47:36.141Z,43.58
2023-05-13T07:50:03.193Z,41.83
2023-05-13T07:52:30.149Z,43.37
2023-05-13T07:54:57.115Z,43.44
2023-05-13T07:57:24.329Z,44.69
2023-05-13T07:59:51.299Z,42.47
2023-05-13T08:02:18.220Z,44.60
2023-05-13T08:04:45.225Z,44.42
2023-05-13T08:07:12.304Z,43.43
2023-05-13T08:09:40.018Z,44.40
2023-05-13T08:12:07.242Z,43.92
2023-05-13T08:14:34.231Z,41.02
2023-05-13T08:17:01.312Z,42.56
2023-05-13T08:19:28.316Z,40.82
2023-05-13T08:21:55.970Z,44.40
2023-05-13T08:24:22.907Z,38.40
2023-05-13T08:26:50.002Z,39.84
2023-05-13T08:29:16.898Z,41.38
2023-05-13T08:31:43.955Z,39.07
2023-05-13T08:34:11.262Z,41.39
2023-05-13T08:36:38.216Z,39.42
2023-05-13T08:39:05.541Z,41.49
2023-05-13T08:41:34.205Z,39.63
2023-05-13T08:44:07.770Z,40.76
2023-05-13T08:46:38.189Z,40.91
2023-05-13T08:49:05.710Z,40.40
2023-05-13T08:51:32.675Z,40.82
2023-05-13T08:54:01.459Z,40.58
2023-05-13T08:56:30.037Z,39.55
2023-05-13T08:58:57.082Z,39.52
2023-05-13T09:01:27.028Z,39.57
2023-05-13T09:04:04.644Z,41.03
2023-05-13T09:06:31.565Z,41.88
2023-05-13T09:08:59.201Z,39.16
2023-05-13T09:11:26.605Z,38.98
2023-05-13T09:14:00.913Z,39.39
2023-05-13T09:16:32.939Z,39.05
2023-05-13T09:19:03.426Z,39.14
2023-05-13T09:21:32.647Z,40.81
2023-05-13T09:24:08.821Z,40.75
2023-05-13T09:26:38.646Z,38.84
2023-05-13T09:29:31.108Z,39.56
2023-05-13T09:32:00.481Z,37.69
2023-05-13T09:34:31.390Z,34.40
2023-05-13T09:37:08.581Z,35.20
2023-05-13T09:39:40.293Z,36.43
2023-05-13T09:42:18.302Z,33.14
2023-05-13T09:44:46.506Z,33.62
2023-05-13T09:47:18.171Z,36.86
2023-05-13T09:49:47.425Z,35.83
2023-05-13T09:52:17.423Z,33.78
2023-05-13T09:54:45.334Z,34.09
2023-05-13T09:57:14.174Z,37.31
2023-05-13T09:59:42.053Z,34.95
2023-05-13T10:02:09.056Z,36.89
2023-05-13T10:04:36.100Z,35.14
2023-05-13T10:07:04.680Z,36.55
2023-05-13T10:09:36.523Z,40.47
2023-05-13T10:12:04.449Z,38.31
2023-05-13T10:14:31.879Z,37.24
2023-05-13T10:16:59.649Z,41.14
2023-05-13T10:19:27.287Z,38.58
2023-05-13T10:21:54.753Z,37.74
2023-05-13T10:24:22.982Z,37.08
2023-05-13T10:26:52.965Z,36.90
2023-05-13T10:29:20.174Z,36.35
2023-05-13T10:31:48.285Z,37.73
2023-05-13T10:34:15.319Z,39.80
2023-05-13T10:37:02.090Z,35.69
2023-05-13T10:39:40.920Z,37.11
2023-05-13T10:42:33.865Z,36.89
2023-05-13T10:45:01.801Z,36.19
2023-05-13T10:47:32.773Z,36.44
2023-05-13T10:50:07.305Z,38.16
2023-05-13T10:52:48.041Z,37.93
2023-05-13T10:55:17.546Z,36.95
2023-05-13T10:58:12.282Z,38.65
2023-05-13T11:00:43.802Z,39.58
2023-05-13T11:03:19.985Z,37.76
2023-05-13T11:06:00.542Z,40.69
2023-05-13T11:08:39.010Z,40.55
2023-05-13T11:11:29.964Z,40.22
2023-05-13T11:14:12.744Z,42.79
2023-05-13T11:16:39.916Z,40.83
2023-05-13T11:19:18.529Z,39.75
2023-05-13T11:21:51.110Z,40.20
2023-05-13T11:24:19.584Z,40.03
2023-05-13T11:26:51.910Z,39.62
2023-05-13T11:29:52.285Z,38.89
2023-05-13T11:32:58.555Z,38.73
2023-05-13T11:35:27.066Z,40.12
2023-05-13T11:37:56.994Z,40.01
2023-05-13T11:40:30.776Z,40.10
2023-05-13T11:42:59.130Z,41.85
2023-05-13T11:45:27.958Z,41.04
2023-05-13T11:47:55.447Z,41.20
2023-05-13T11:50:24.429Z,40.72
2023-05-13T11:52:55.606Z,41.26
2023-05-13T11:55:27.395Z,42.83
2023-05-13T11:57:54.649Z,40.45
2023-05-13T12:00:32.419Z,41.20
2023-05-13T12:03:00.944Z,41.14
2023-05-13T12:05:28.199Z,40.93
2023-05-13T12:07:58.766Z,40.65
2023-05-13T12:10:26.625Z,40.33
2023-05-13T12:12:54.219Z,39.32
2023-05-13T12:15:22.407Z,41.21
2023-05-13T12:17:50.467Z,40.84
2023-05-13T12:20:19.923Z,40.79
2023-05-13T12:22:47.053Z,41.32
2023-05-13T12:25:33.107Z,42.92
2023-05-13T12:28:00.597Z,39.36
2023-05-13T12:30:34.647Z,42.47
2023-05-13T12:33:01.929Z,39.94
2023-05-13T12:35:28.873Z,40.38
2023-05-13T12:38:06.639Z,40.03
2023-05-13T12:40:33.598Z,36.99
2023-05-13T12:43:02.117Z,37.08
2023-05-13T12:45:30.800Z,38.95
2023-05-13T12:47:58.729Z,38.08
2023-05-13T12:50:26.594Z,38.92
2023-05-13T12:52:58.047Z,37.28
2023-05-13T12:55:29.657Z,36.05
2023-05-13T12:57:56.751Z,36.75
2023-05-13T13:00:24.725Z,39.09
2023-05-13T13:02:53.909Z,37.33
2023-05-13T13:05:24.359Z,37.42
2023-05-13T13:07:54.916Z,35.33
2023-05-13T13:10:22.177Z,37.02
2023-05-13T13:12:49.806Z,35.20
2023-05-13T13:15:17.079Z,37.01
2023-05-13T13:17:45.193Z,37.47
2023-05-13T13:20:12.800Z,35.12
2023-05-13T13:22:39.789Z,36.27
2023-05-13T13:25:07.697Z,37.56
2023-05-13T13:27:35.282Z,36.46
2023-05-13T13:30:02.763Z,38.58
2023-05-13T13:32:29.758Z,38.00
2023-05-13T13:34:58.422Z,38.94
2023-05-13T13:37:25.402Z,39.08
2023-05-13T13:39:52.331Z,38.05
2023-05-13T13:42:19.286Z,38.14
2023-05-13T13:44:46.221Z,37.57
2023-05-13T13:47:13.127Z,37.03
2023-05-13T13:49:40.487Z,37.50
2023-05-13T13:52:08.686Z,38.85
2023-05-13T13:54:35.613Z,37.68
2023-05-13T13:57:02.920Z,39.68
2023-05-13T13:59:29.902Z,39.65
2023-05-13T14:01:57.235Z,38.87
2023-05-13T14:04:27.699Z,40.53
2023-05-13T14:06:57.985Z,39.58
2023-05-13T14:09:25.464Z,40.07
2023-05-13T14:11:52.438Z,40.40
2023-05-13T14:14:19.360Z,38.31
2023-05-13T14:16:46.515Z,41.01
2023-05-13T14:19:13.580Z,37.66
2023-05-13T14:21:40.608Z,37.60
2023-05-13T14:24:08.798Z,40.76
2023-05-13T14:26:35.852Z,38.28
2023-05-13T14:29:02.850Z,38.49
2023-05-13T14:31:31.774Z,37.81
2023-05-13T14:33:58.848Z,39.04
2023-05-13T14:36:27.002Z,38.53
2023-05-13T14:38:54.644Z,39.57
2023-05-13T14:41:22.961Z,39.35
2023-05-13T14:43:50.006Z,38.28
2023-05-13T14:46:17.372Z,38.66
2023-05-13T14:48:44.334Z,39.56
2023-05-13T14:51:12.591Z,39.71
2023-05-13T14:53:43.193Z,40.47
2023-05-13T14:56:10.342Z,38.10
2023-05-13T14:58:37.219Z,38.28
2023-05-13T15:01:04.371Z,39.23
2023-05-13T15:03:31.333Z,40.60
2023-05-13T15:05:58.498Z,39.73
2023-05-13T15:08:25.778Z,39.36
2023-05-13T15:10:52.724Z,40.90
2023-05-13T15:13:20.032Z,40.51
2023-05-13T15:15:47.133Z,40.50
2023-05-13T15:18:14.433Z,40.01
2023-05-13T15:20:41.622Z,39.45
2023-05-13T15:23:08.859Z,40.49
2023-05-13T15:25:36.584Z,41.23
2023-05-13T15:28:03.854Z,41.38
2023-05-13T15:30:30.845Z,41.37
2023-05-13T15:32:57.943Z,42.24
2023-05-13T15:35:24.918Z,42.27
2023-05-13T15:37:51.868Z,42.07
2023-05-13T15:40:18.803Z,42.24
2023-05-13T15:42:45.789Z,41.36
2023-05-13T15:45:12.713Z,41.58
2023-05-13T15:47:39.766Z,42.65
2023-05-13T15:50:07.275Z,41.98
2023-05-13T15:52:34.226Z,42.42
2023-05-13T15:55:01.248Z,42.01
2023-05-13T15:57:28.176Z,41.55
2023-05-13T15:59:55.124Z,41.67
2023-05-13T16:02:22.016Z,42.15
2023-05-13T16:04:50.228Z,43.33
2023-05-13T16:07:17.148Z,42.46
2023-05-13T16:09:44.106Z,42.30
2023-05-13T16:12:11.048Z,43.49
2023-05-13T16:14:38.682Z,43.14
2023-05-13T16:17:05.864Z,43.19
2023-05-13T16:19:32.880Z,44.71
2023-05-13T16:21:59.773Z,43.83
2023-05-13T16:24:26.765Z,45.27
2023-05-13T16:26:53.756Z,45.16
2023-05-13T16:29:20.688Z,45.64
2023-05-13T16:31:47.666Z,45.42
2023-05-13T16:34:14.997Z,46.36
2023-05-13T16:36:43.433Z,45.41
2023-05-13T16:39:10.365Z,45.54
2023-05-13T16:41:37.323Z,45.99
2023-05-13T16:44:04.412Z,45.26
2023-05-13T16:46:35.614Z,45.31
2023-05-13T16:49:02.721Z,43.70
2023-05-13T16:51:29.816Z,43.64
2023-05-13T16:53:56.750Z,42.59
2023-05-13T16:56:23.705Z,42.28
2023-05-13T16:58:50.641Z,42.18
2023-05-13T17:01:17.577Z,41.38
2023-05-13T17:03:44.644Z,42.68
2023-05-13T17:06:11.661Z,42.39
2023-05-13T17:08:38.605Z,42.04
2023-05-13T17:11:05.744Z,42.55
2023-05-13T17:13:32.691Z,41.81
2023-05-13T17:15:59.614Z,42.39
2023-05-13T17:18:26.808Z,42.42
2023-05-13T17:20:55.185Z,42.86
2023-05-13T17:23:22.095Z,41.79
2023-05-13T17:25:49.048Z,42.58
2023-05-13T17:31:57.092Z,42.51
2023-05-13T17:34:24.041Z,43.15
2023-05-13T17:36:50.956Z,43.91
2023-05-13T17:39:17.930Z,43.60
2023-05-13T17:41:44.853Z,43.91
2023-05-13T17:44:13.275Z,44.41
2023-05-13T17:46:40.221Z,45.18
2023-05-13T17:49:08.557Z,45.73
2023-05-13T17:51:35.767Z,45.88
2023-05-13T17:54:02.761Z,46.18
2023-05-13T17:56:29.706Z,46.45
2023-05-13T17:58:57.553Z,46.76
2023-05-13T18:01:24.466Z,47.00
2023-05-13T18:03:51.599Z,47.00
2023-05-13T18:06:18.562Z,47.29
2023-05-13T18:08:45.512Z,47.76
2023-05-13T18:11:12.428Z,50.08
2023-05-13T18:13:39.411Z,48.27
2023-05-13T18:16:07.734Z,49.08
2023-05-13T18:18:34.729Z,48.70
2023-05-13T18:21:02.096Z,49.87
2023-05-13T18:23:29.057Z,50.10
2023-05-13T18:25:56.563Z,52.00
2023-05-13T18:28:23.813Z,52.10
2023-05-13T18:30:50.866Z,50.50
2023-05-13T18:33:20.669Z,51.95
2023-05-13T18:35:47.810Z,52.67
2023-05-13T18:38:14.689Z,52.13
2023-05-13T18:40:41.641Z,52.67
2023-05-13T18:43:08.573Z,53.29
2023-05-13T18:45:35.575Z,53.24
2023-05-13T18:48:02.657Z,54.58
2023-05-13T18:50:29.691Z,53.95
2023-05-13T18:52:56.669Z,54.55
2023-05-13T18:55:23.601Z,56.55
2023-05-13T18:57:51.016Z,56.39
2023-05-13T19:00:18.726Z,57.38
2023-05-13T19:02:45.774Z,58.54
